sensor_id;sensor_type;location;lat;lon;timestamp;P1;durP1;ratioP1;P2;durP2;ratioP2
23280;SDS011;11809;56.390;-3.266;2023-06-24T00:02:24;3.95;;;2.30;;
23280;SDS011;11809;56.390;-3.266;2023-06-24T00:04:55;3.53;;;1.98;;
23280;SDS011;11809;56.390;-3.266;2023-06-24T00:07:26;3.50;;;2.15;;
23280;SDS011;11809;56.390;-3.266;2023-06-24T00:09:53;5.30;;;2.10;;
23280;SDS011;11809;56.390;-3.266;2023-06-24T00:12:21;3.75;;;2.17;;
23280;SDS011;11809;56.390;-3.266;2023-06-24T00:14:48;2.25;;;1.80;;
23280;SDS011;11809;56.390;-3.266;2023-06-24T00:17:16;6.22;;;2.10;;
23280;SDS011;11809;56.390;-3.266;2023-06-24T00:19:43;1.90;;;1.70;;
23280;SDS011;11809;56.390;-3.266;2023-06-24T00:22:10;2.70;;;1.63;;
23280;SDS011;11809;56.390;-3.266;2023-06-24T00:24:41;4.57;;;2.00;;
23280;SDS011;11809;56.390;-3.266;2023-06-24T00:27:10;3.08;;;1.73;;
23280;SDS011;11809;56.390;-3.266;2023-06-24T00:29:37;4.55;;;1.40;;
23280;SDS011;11809;56.390;-3.266;2023-06-24T00:32:04;2.13;;;1.60;;
23280;SDS011;11809;56.390;-3.266;2023-06-24T00:34:32;2.65;;;1.65;;
23280;SDS011;11809;56.390;-3.266;2023-06-24T00:36:59;2.47;;;1.60;;
23280;SDS011;11809;56.390;-3.266;2023-06-24T00:39:26;2.50;;;1.55;;
23280;SDS011;11809;56.390;-3.266;2023-06-24T00:41:53;2.28;;;1.40;;
23280;SDS011;11809;56.390;-3.266;2023-06-24T00:44:21;2.47;;;1.50;;
23280;SDS011;11809;56.390;-3.266;2023-06-24T00:46:48;2.25;;;1.65;;
23280;SDS011;11809;56.390;-3.266;2023-06-24T00:49:16;5.13;;;1.30;;
23280;SDS011;11809;56.390;-3.266;2023-06-24T00:51:43;1.85;;;1.30;;
23280;SDS011;11809;56.390;-3.266;2023-06-24T00:54:17;1.73;;;1.38;;
23280;SDS011;11809;56.390;-3.266;2023-06-24T00:56:45;2.25;;;1.33;;
23280;SDS011;11809;56.390;-3.266;2023-06-24T00:59:13;3.97;;;1.38;;
23280;SDS011;11809;56.390;-3.266;2023-06-24T01:01:43;2.15;;;1.40;;
23280;SDS011;11809;56.390;-3.266;2023-06-24T01:04:12;2.03;;;1.40;;
23280;SDS011;11809;56.390;-3.266;2023-06-24T01:06:40;2.95;;;1.17;;
23280;SDS011;11809;56.390;-3.266;2023-06-24T01:09:10;4.35;;;1.27;;
23280;SDS011;11809;56.390;-3.266;2023-06-24T01:11:38;1.60;;;1.02;;
23280;SDS011;11809;56.390;-3.266;2023-06-24T01:14:05;1.30;;;1.10;;
23280;SDS011;11809;56.390;-3.266;2023-06-24T01:16:35;1.77;;;1.30;;
23280;SDS011;11809;56.390;-3.266;2023-06-24T01:22:15;3.22;;;1.15;;
23280;SDS011;11809;56.390;-3.266;2023-06-24T01:33:12;3.80;;;1.08;;
23280;SDS011;11809;56.390;-3.266;2023-06-24T01:35:46;2.45;;;1.00;;
23280;SDS011;11809;56.390;-3.266;2023-06-24T01:38:19;1.65;;;1.00;;
23280;SDS011;11809;56.390;-3.266;2023-06-24T01:40:51;1.38;;;1.27;;
23280;SDS011;11809;56.390;-3.266;2023-06-24T01:43:19;1.80;;;1.08;;
23280;SDS011;11809;56.390;-3.266;2023-06-24T01:45:50;2.13;;;1.13;;
23280;SDS011;11809;56.390;-3.266;2023-06-24T01:48:23;1.17;;;1.05;;
23280;SDS011;11809;56.390;-3.266;2023-06-24T01:51:00;3.55;;;1.02;;
23280;SDS011;11809;56.390;-3.266;2023-06-24T01:53:36;2.22;;;0.93;;
23280;SDS011;11809;56.390;-3.266;2023-06-24T01:56:10;2.00;;;1.00;;
23280;SDS011;11809;56.390;-3.266;2023-06-24T01:58:39;1.30;;;1.20;;
23280;SDS011;11809;56.390;-3.266;2023-06-24T02:01:08;2.65;;;1.55;;
23280;SDS011;11809;56.390;-3.266;2023-06-24T02:03:37;2.20;;;1.20;;
23280;SDS011;11809;56.390;-3.266;2023-06-24T02:06:07;1.10;;;1.00;;
23280;SDS011;11809;56.390;-3.266;2023-06-24T02:08:36;2.33;;;1.00;;
23280;SDS011;11809;56.390;-3.266;2023-06-24T02:11:06;3.97;;;1.08;;
23280;SDS011;11809;56.390;-3.266;2023-06-24T02:13:36;1.70;;;1.10;;
23280;SDS011;11809;56.390;-3.266;2023-06-24T02:16:06;1.00;;;0.93;;
23280;SDS011;11809;56.390;-3.266;2023-06-24T02:18:35;1.02;;;1.00;;
23280;SDS011;11809;56.390;-3.266;2023-06-24T02:21:09;2.63;;;1.00;;
23280;SDS011;11809;56.390;-3.266;2023-06-24T02:23:37;1.10;;;1.00;;
23280;SDS011;11809;56.390;-3.266;2023-06-24T02:26:05;1.83;;;1.02;;
23280;SDS011;11809;56.390;-3.266;2023-06-24T02:28:33;2.10;;;0.90;;
23280;SDS011;11809;56.390;-3.266;2023-06-24T02:31:01;1.20;;;0.90;;
23280;SDS011;11809;56.390;-3.266;2023-06-24T02:33:29;1.20;;;1.10;;
23280;SDS011;11809;56.390;-3.266;2023-06-24T02:35:56;2.85;;;1.10;;
23280;SDS011;11809;56.390;-3.266;2023-06-24T02:38:23;4.57;;;1.10;;
23280;SDS011;11809;56.390;-3.266;2023-06-24T02:40:53;1.70;;;1.02;;
23280;SDS011;11809;56.390;-3.266;2023-06-24T02:43:21;1.25;;;0.98;;
23280;SDS011;11809;56.390;-3.266;2023-06-24T02:45:48;4.10;;;1.00;;
23280;SDS011;11809;56.390;-3.266;2023-06-24T02:48:17;7.75;;;1.00;;
23280;SDS011;11809;56.390;-3.266;2023-06-24T02:50:46;1.10;;;1.02;;
23280;SDS011;11809;56.390;-3.266;2023-06-24T02:53:14;1.40;;;1.00;;
23280;SDS011;11809;56.390;-3.266;2023-06-24T02:55:42;1.13;;;1.00;;
23280;SDS011;11809;56.390;-3.266;2023-06-24T02:58:10;0.95;;;0.95;;
23280;SDS011;11809;56.390;-3.266;2023-06-24T03:00:38;1.98;;;0.90;;
23280;SDS011;11809;56.390;-3.266;2023-06-24T03:03:05;0.95;;;0.95;;
23280;SDS011;11809;56.390;-3.266;2023-06-24T03:05:34;2.55;;;0.90;;
23280;SDS011;11809;56.390;-3.266;2023-06-24T03:08:02;4.50;;;1.42;;
23280;SDS011;11809;56.390;-3.266;2023-06-24T03:10:30;1.23;;;1.08;;
23280;SDS011;11809;56.390;-3.266;2023-06-24T03:12:57;1.25;;;0.95;;
23280;SDS011;11809;56.390;-3.266;2023-06-24T03:15:24;4.10;;;1.20;;
23280;SDS011;11809;56.390;-3.266;2023-06-24T03:17:56;2.88;;;0.90;;
23280;SDS011;11809;56.390;-3.266;2023-06-24T03:20:23;1.85;;;1.05;;
23280;SDS011;11809;56.390;-3.266;2023-06-24T03:22:50;2.67;;;1.20;;
23280;SDS011;11809;56.390;-3.266;2023-06-24T03:25:19;1.20;;;1.10;;
23280;SDS011;11809;56.390;-3.266;2023-06-24T03:27:46;1.88;;;0.90;;
23280;SDS011;11809;56.390;-3.266;2023-06-24T03:30:13;1.27;;;1.17;;
23280;SDS011;11809;56.390;-3.266;2023-06-24T03:32:41;1.42;;;1.10;;
23280;SDS011;11809;56.390;-3.266;2023-06-24T03:35:13;1.40;;;1.02;;
23280;SDS011;11809;56.390;-3.266;2023-06-24T03:37:40;5.10;;;1.10;;
23280;SDS011;11809;56.390;-3.266;2023-06-24T03:40:08;2.13;;;1.02;;
23280;SDS011;11809;56.390;-3.266;2023-06-24T03:42:35;3.40;;;1.10;;
23280;SDS011;11809;56.390;-3.266;2023-06-24T03:45:03;4.40;;;1.20;;
23280;SDS011;11809;56.390;-3.266;2023-06-24T03:47:30;4.60;;;1.02;;
23280;SDS011;11809;56.390;-3.266;2023-06-24T03:49:57;10.10;;;1.38;;
23280;SDS011;11809;56.390;-3.266;2023-06-24T03:52:24;0.95;;;0.95;;
23280;SDS011;11809;56.390;-3.266;2023-06-24T03:54:52;2.85;;;1.10;;
23280;SDS011;11809;56.390;-3.266;2023-06-24T03:57:20;1.45;;;1.00;;
23280;SDS011;11809;56.390;-3.266;2023-06-24T03:59:47;1.60;;;1.13;;
23280;SDS011;11809;56.390;-3.266;2023-06-24T04:02:14;2.45;;;1.25;;
23280;SDS011;11809;56.390;-3.266;2023-06-24T04:04:42;6.43;;;1.30;;
23280;SDS011;11809;56.390;-3.266;2023-06-24T04:07:09;1.02;;;1.00;;
23280;SDS011;11809;56.390;-3.266;2023-06-24T04:09:36;2.75;;;1.30;;
23280;SDS011;11809;56.390;-3.266;2023-06-24T04:12:03;2.22;;;1.50;;
23280;SDS011;11809;56.390;-3.266;2023-06-24T04:14:30;5.03;;;1.30;;
23280;SDS011;11809;56.390;-3.266;2023-06-24T04:16:57;2.38;;;1.20;;
23280;SDS011;11809;56.390;-3.266;2023-06-24T04:19:25;3.70;;;1.30;;
23280;SDS011;11809;56.390;-3.266;2023-06-24T04:21:51;1.60;;;1.50;;
23280;SDS011;11809;56.390;-3.266;2023-06-24T04:24:18;2.33;;;1.50;;
23280;SDS011;11809;56.390;-3.266;2023-06-24T04:26:45;3.90;;;1.42;;
23280;SDS011;11809;56.390;-3.266;2023-06-24T04:29:12;9.30;;;1.40;;
23280;SDS011;11809;56.390;-3.266;2023-06-24T04:31:39;3.58;;;1.40;;
23280;SDS011;11809;56.390;-3.266;2023-06-24T04:34:06;1.58;;;1.40;;
23280;SDS011;11809;56.390;-3.266;2023-06-24T04:36:33;2.05;;;1.35;;
23280;SDS011;11809;56.390;-3.266;2023-06-24T04:39:02;8.43;;;2.08;;
23280;SDS011;11809;56.390;-3.266;2023-06-24T04:41:29;4.50;;;1.45;;
23280;SDS011;11809;56.390;-3.266;2023-06-24T04:43:56;3.78;;;1.70;;
23280;SDS011;11809;56.390;-3.266;2023-06-24T04:46:23;4.28;;;1.63;;
23280;SDS011;11809;56.390;-3.266;2023-06-24T04:48:50;4.45;;;1.92;;
23280;SDS011;11809;56.390;-3.266;2023-06-24T04:51:17;13.32;;;1.73;;
23280;SDS011;11809;56.390;-3.266;2023-06-24T04:53:44;4.50;;;1.73;;
23280;SDS011;11809;56.390;-3.266;2023-06-24T04:56:11;9.00;;;2.40;;
23280;SDS011;11809;56.390;-3.266;2023-06-24T04:58:38;6.75;;;2.30;;
23280;SDS011;11809;56.390;-3.266;2023-06-24T05:01:05;5.45;;;2.30;;
23280;SDS011;11809;56.390;-3.266;2023-06-24T05:03:32;3.72;;;2.20;;
23280;SDS011;11809;56.390;-3.266;2023-06-24T05:05:59;4.93;;;2.25;;
23280;SDS011;11809;56.390;-3.266;2023-06-24T05:08:29;4.93;;;2.13;;
23280;SDS011;11809;56.390;-3.266;2023-06-24T05:10:56;2.20;;;2.00;;
23280;SDS011;11809;56.390;-3.266;2023-06-24T05:13:23;6.85;;;2.40;;
23280;SDS011;11809;56.390;-3.266;2023-06-24T05:15:50;123.45;;;7.10;;
23280;SDS011;11809;56.390;-3.266;2023-06-24T05:18:17;68.57;;;5.25;;
23280;SDS011;11809;56.390;-3.266;2023-06-24T05:20:44;49.13;;;4.70;;
23280;SDS011;11809;56.390;-3.266;2023-06-24T05:23:11;45.08;;;4.10;;
23280;SDS011;11809;56.390;-3.266;2023-06-24T05:25:38;19.15;;;4.15;;
23280;SDS011;11809;56.390;-3.266;2023-06-24T05:28:05;25.58;;;3.65;;
23280;SDS011;11809;56.390;-3.266;2023-06-24T05:30:32;16.15;;;2.70;;
23280;SDS011;11809;56.390;-3.266;2023-06-24T05:32:59;25.25;;;2.85;;
23280;SDS011;11809;56.390;-3.266;2023-06-24T05:35:27;11.80;;;2.78;;
23280;SDS011;11809;56.390;-3.266;2023-06-24T05:37:54;19.75;;;3.05;;
23280;SDS011;11809;56.390;-3.266;2023-06-24T05:40:21;13.38;;;2.97;;
23280;SDS011;11809;56.390;-3.266;2023-06-24T05:42:48;23.40;;;3.40;;
23280;SDS011;11809;56.390;-3.266;2023-06-24T05:45:16;15.13;;;3.83;;
23280;SDS011;11809;56.390;-3.266;2023-06-24T05:47:43;19.90;;;3.90;;
23280;SDS011;11809;56.390;-3.266;2023-06-24T05:50:10;15.80;;;3.75;;
23280;SDS011;11809;56.390;-3.266;2023-06-24T05:52:37;10.25;;;3.88;;
23280;SDS011;11809;56.390;-3.266;2023-06-24T05:55:04;15.52;;;4.45;;
23280;SDS011;11809;56.390;-3.266;2023-06-24T05:57:31;16.85;;;4.35;;
23280;SDS011;11809;56.390;-3.266;2023-06-24T05:59:59;43.42;;;5.60;;
23280;SDS011;11809;56.390;-3.266;2023-06-24T06:02:26;33.88;;;4.80;;
23280;SDS011;11809;56.390;-3.266;2023-06-24T06:04:53;24.45;;;5.20;;
23280;SDS011;11809;56.390;-3.266;2023-06-24T06:07:21;22.60;;;4.60;;
23280;SDS011;11809;56.390;-3.266;2023-06-24T06:09:48;21.98;;;5.75;;
23280;SDS011;11809;56.390;-3.266;2023-06-24T06:12:15;20.17;;;5.55;;
23280;SDS011;11809;56.390;-3.266;2023-06-24T06:14:42;26.10;;;5.93;;
23280;SDS011;11809;56.390;-3.266;2023-06-24T06:17:09;27.45;;;5.13;;
23280;SDS011;11809;56.390;-3.266;2023-06-24T06:19:36;24.35;;;5.18;;
23280;SDS011;11809;56.390;-3.266;2023-06-24T06:22:06;27.10;;;5.03;;
23280;SDS011;11809;56.390;-3.266;2023-06-24T06:24:34;17.98;;;4.88;;
23280;SDS011;11809;56.390;-3.266;2023-06-24T06:27:01;17.63;;;5.28;;
23280;SDS011;11809;56.390;-3.266;2023-06-24T06:29:28;32.42;;;5.53;;
23280;SDS011;11809;56.390;-3.266;2023-06-24T06:31:55;19.27;;;4.50;;
23280;SDS011;11809;56.390;-3.266;2023-06-24T06:34:23;18.80;;;4.80;;
23280;SDS011;11809;56.390;-3.266;2023-06-24T06:36:50;25.13;;;4.13;;
23280;SDS011;11809;56.390;-3.266;2023-06-24T06:39:17;10.00;;;4.57;;
23280;SDS011;11809;56.390;-3.266;2023-06-24T06:41:45;10.15;;;4.40;;
23280;SDS011;11809;56.390;-3.266;2023-06-24T06:44:12;5.30;;;3.88;;
23280;SDS011;11809;56.390;-3.266;2023-06-24T06:46:39;9.77;;;3.83;;
23280;SDS011;11809;56.390;-3.266;2023-06-24T06:49:06;16.70;;;4.07;;
23280;SDS011;11809;56.390;-3.266;2023-06-24T06:51:33;7.57;;;4.28;;
23280;SDS011;11809;56.390;-3.266;2023-06-24T06:54:01;7.95;;;3.92;;
23280;SDS011;11809;56.390;-3.266;2023-06-24T06:56:28;5.70;;;3.83;;
23280;SDS011;11809;56.390;-3.266;2023-06-24T06:58:55;10.63;;;4.00;;
23280;SDS011;11809;56.390;-3.266;2023-06-24T07:01:23;8.00;;;3.80;;
23280;SDS011;11809;56.390;-3.266;2023-06-24T07:03:50;11.48;;;3.60;;
23280;SDS011;11809;56.390;-3.266;2023-06-24T07:06:18;12.13;;;3.95;;
23280;SDS011;11809;56.390;-3.266;2023-06-24T07:08:46;6.68;;;3.50;;
23280;SDS011;11809;56.390;-3.266;2023-06-24T07:11:13;8.48;;;3.88;;
23280;SDS011;11809;56.390;-3.266;2023-06-24T07:13:40;3.92;;;3.40;;
23280;SDS011;11809;56.390;-3.266;2023-06-24T07:16:07;5.00;;;3.40;;
23280;SDS011;11809;56.390;-3.266;2023-06-24T07:18:35;9.55;;;3.60;;
23280;SDS011;11809;56.390;-3.266;2023-06-24T07:21:02;7.30;;;3.50;;
23280;SDS011;11809;56.390;-3.266;2023-06-24T07:23:29;4.55;;;3.20;;
23280;SDS011;11809;56.390;-3.266;2023-06-24T07:25:56;6.40;;;3.28;;
23280;SDS011;11809;56.390;-3.266;2023-06-24T07:28:23;5.03;;;3.10;;
23280;SDS011;11809;56.390;-3.266;2023-06-24T07:30:50;4.95;;;3.08;;
23280;SDS011;11809;56.390;-3.266;2023-06-24T07:33:17;8.27;;;3.38;;
23280;SDS011;11809;56.390;-3.266;2023-06-24T07:35:44;6.30;;;3.00;;
23280;SDS011;11809;56.390;-3.266;2023-06-24T07:38:11;5.65;;;3.55;;
23280;SDS011;11809;56.390;-3.266;2023-06-24T07:40:39;9.88;;;3.08;;
23280;SDS011;11809;56.390;-3.266;2023-06-24T07:43:06;8.13;;;3.20;;
23280;SDS011;11809;56.390;-3.266;2023-06-24T07:45:33;4.25;;;2.90;;
23280;SDS011;11809;56.390;-3.266;2023-06-24T07:48:00;4.05;;;2.50;;
23280;SDS011;11809;56.390;-3.266;2023-06-24T07:50:27;6.32;;;2.58;;
23280;SDS011;11809;56.390;-3.266;2023-06-24T07:52:54;3.00;;;2.78;;
23280;SDS011;11809;56.390;-3.266;2023-06-24T07:55:21;4.28;;;2.88;;
23280;SDS011;11809;56.390;-3.266;2023-06-24T07:57:49;2.53;;;2.30;;
23280;SDS011;11809;56.390;-3.266;2023-06-24T08:00:16;2.67;;;2.47;;
23280;SDS011;11809;56.390;-3.266;2023-06-24T08:02:43;3.85;;;2.60;;
23280;SDS011;11809;56.390;-3.266;2023-06-24T08:05:11;11.90;;;2.70;;
23280;SDS011;11809;56.390;-3.266;2023-06-24T08:07:38;5.95;;;2.80;;
23280;SDS011;11809;56.390;-3.266;2023-06-24T08:10:07;22.67;;;2.88;;
23280;SDS011;11809;56.390;-3.266;2023-06-24T08:12:35;8.77;;;2.78;;
23280;SDS011;11809;56.390;-3.266;2023-06-24T08:15:02;4.10;;;2.40;;
23280;SDS011;11809;56.390;-3.266;2023-06-24T08:17:29;4.35;;;2.80;;
23280;SDS011;11809;56.390;-3.266;2023-06-24T08:19:57;3.65;;;2.60;;
23280;SDS011;11809;56.390;-3.266;2023-06-24T08:22:24;3.33;;;2.30;;
23280;SDS011;11809;56.390;-3.266;2023-06-24T08:24:51;5.35;;;2.60;;
23280;SDS011;11809;56.390;-3.266;2023-06-24T08:27:18;11.70;;;2.88;;
23280;SDS011;11809;56.390;-3.266;2023-06-24T08:29:46;2.60;;;2.17;;
23280;SDS011;11809;56.390;-3.266;2023-06-24T08:32:13;4.53;;;2.10;;
23280;SDS011;11809;56.390;-3.266;2023-06-24T08:34:40;21.17;;;2.97;;
23280;SDS011;11809;56.390;-3.266;2023-06-24T08:37:07;4.43;;;2.30;;
23280;SDS011;11809;56.390;-3.266;2023-06-24T08:39:34;6.75;;;2.65;;
23280;SDS011;11809;56.390;-3.266;2023-06-24T08:42:03;22.20;;;3.40;;
23280;SDS011;11809;56.390;-3.266;2023-06-24T08:44:30;40.70;;;4.78;;
23280;SDS011;11809;56.390;-3.266;2023-06-24T08:46:57;48.45;;;4.50;;
23280;SDS011;11809;56.390;-3.266;2023-06-24T08:49:27;55.08;;;5.20;;
23280;SDS011;11809;56.390;-3.266;2023-06-24T08:54:33;31.33;;;3.47;;
23280;SDS011;11809;56.390;-3.266;2023-06-24T08:57:02;13.43;;;3.03;;
23280;SDS011;11809;56.390;-3.266;2023-06-24T08:59:32;17.33;;;2.80;;
23280;SDS011;11809;56.390;-3.266;2023-06-24T09:02:01;9.52;;;2.60;;
23280;SDS011;11809;56.390;-3.266;2023-06-24T09:04:28;32.65;;;3.78;;
23280;SDS011;11809;56.390;-3.266;2023-06-24T09:06:56;33.40;;;3.47;;
23280;SDS011;11809;56.390;-3.266;2023-06-24T09:09:23;22.30;;;3.17;;
23280;SDS011;11809;56.390;-3.266;2023-06-24T09:11:51;27.88;;;3.78;;
23280;SDS011;11809;56.390;-3.266;2023-06-24T09:14:20;26.88;;;3.33;;
23280;SDS011;11809;56.390;-3.266;2023-06-24T09:16:59;23.70;;;3.80;;
23280;SDS011;11809;56.390;-3.266;2023-06-24T09:19:28;34.58;;;3.40;;
23280;SDS011;11809;56.390;-3.266;2023-06-24T09:22:01;23.77;;;3.53;;
23280;SDS011;11809;56.390;-3.266;2023-06-24T09:24:31;33.05;;;4.05;;
23280;SDS011;11809;56.390;-3.266;2023-06-24T09:27:03;30.20;;;4.38;;
23280;SDS011;11809;56.390;-3.266;2023-06-24T09:29:34;54.58;;;5.20;;
23280;SDS011;11809;56.390;-3.266;2023-06-24T09:32:06;31.92;;;3.70;;
23280;SDS011;11809;56.390;-3.266;2023-06-24T09:37:01;20.75;;;3.05;;
23280;SDS011;11809;56.390;-3.266;2023-06-24T09:39:30;22.15;;;3.65;;
23280;SDS011;11809;56.390;-3.266;2023-06-24T09:42:02;13.50;;;3.05;;
23280;SDS011;11809;56.390;-3.266;2023-06-24T09:44:31;20.75;;;2.83;;
23280;SDS011;11809;56.390;-3.266;2023-06-24T09:46:58;25.52;;;3.53;;
23280;SDS011;11809;56.390;-3.266;2023-06-24T09:49:25;20.95;;;3.28;;
23280;SDS011;11809;56.390;-3.266;2023-06-24T09:51:54;18.60;;;3.10;;
23280;SDS011;11809;56.390;-3.266;2023-06-24T09:54:25;11.52;;;2.80;;
23280;SDS011;11809;56.390;-3.266;2023-06-24T09:57:00;16.25;;;3.03;;
23280;SDS011;11809;56.390;-3.266;2023-06-24T09:59:30;15.75;;;2.65;;
23280;SDS011;11809;56.390;-3.266;2023-06-24T10:02:00;9.32;;;2.67;;
23280;SDS011;11809;56.390;-3.266;2023-06-24T10:04:30;4.53;;;3.08;;
23280;SDS011;11809;56.390;-3.266;2023-06-24T10:06:58;19.20;;;2.72;;
23280;SDS011;11809;56.390;-3.266;2023-06-24T10:09:26;8.80;;;2.67;;
23280;SDS011;11809;56.390;-3.266;2023-06-24T10:11:53;5.30;;;2.70;;
23280;SDS011;11809;56.390;-3.266;2023-06-24T10:14:20;11.10;;;2.88;;
23280;SDS011;11809;56.390;-3.266;2023-06-24T10:16:47;8.98;;;2.45;;
23280;SDS011;11809;56.390;-3.266;2023-06-24T10:19:20;11.57;;;3.33;;
23280;SDS011;11809;56.390;-3.266;2023-06-24T10:24:38;6.82;;;2.40;;
23280;SDS011;11809;56.390;-3.266;2023-06-24T10:27:13;6.43;;;2.50;;
23280;SDS011;11809;56.390;-3.266;2023-06-24T10:29:45;5.75;;;2.60;;
23280;SDS011;11809;56.390;-3.266;2023-06-24T10:32:13;7.50;;;2.55;;
23280;SDS011;11809;56.390;-3.266;2023-06-24T10:34:41;7.55;;;3.08;;
23280;SDS011;11809;56.390;-3.266;2023-06-24T10:39:39;7.57;;;2.65;;
23280;SDS011;11809;56.390;-3.266;2023-06-24T10:47:29;5.60;;;2.55;;
23280;SDS011;11809;56.390;-3.266;2023-06-24T10:49:56;12.15;;;3.03;;
23280;SDS011;11809;56.390;-3.266;2023-06-24T10:52:24;2.50;;;2.30;;
23280;SDS011;11809;56.390;-3.266;2023-06-24T10:54:51;11.05;;;2.88;;
23280;SDS011;11809;56.390;-3.266;2023-06-24T10:57:23;4.35;;;2.22;;
23280;SDS011;11809;56.390;-3.266;2023-06-24T10:59:52;8.60;;;2.92;;
23280;SDS011;11809;56.390;-3.266;2023-06-24T11:02:24;6.38;;;2.00;;
23280;SDS011;11809;56.390;-3.266;2023-06-24T11:04:55;4.78;;;2.00;;
23280;SDS011;11809;56.390;-3.266;2023-06-24T11:07:24;2.97;;;2.10;;
23280;SDS011;11809;56.390;-3.266;2023-06-24T11:09:53;2.85;;;2.30;;
23280;SDS011;11809;56.390;-3.266;2023-06-24T11:12:25;3.60;;;2.08;;
23280;SDS011;11809;56.390;-3.266;2023-06-24T11:17:31;3.00;;;1.88;;
23280;SDS011;11809;56.390;-3.266;2023-06-24T11:19:59;2.40;;;1.48;;
23280;SDS011;11809;56.390;-3.266;2023-06-24T11:22:27;3.78;;;1.67;;
23280;SDS011;11809;56.390;-3.266;2023-06-24T11:24:54;1.98;;;1.77;;
23280;SDS011;11809;56.390;-3.266;2023-06-24T11:29:53;1.67;;;1.50;;
23280;SDS011;11809;56.390;-3.266;2023-06-24T11:32:21;2.70;;;1.80;;
23280;SDS011;11809;56.390;-3.266;2023-06-24T11:34:49;4.53;;;1.80;;
23280;SDS011;11809;56.390;-3.266;2023-06-24T11:37:17;11.68;;;1.92;;
23280;SDS011;11809;56.390;-3.266;2023-06-24T11:39:47;22.13;;;2.30;;
23280;SDS011;11809;56.390;-3.266;2023-06-24T11:42:28;13.15;;;3.00;;
23280;SDS011;11809;56.390;-3.266;2023-06-24T11:45:03;10.43;;;2.15;;
23280;SDS011;11809;56.390;-3.266;2023-06-24T11:47:32;14.23;;;2.47;;
23280;SDS011;11809;56.390;-3.266;2023-06-24T11:50:03;6.57;;;2.10;;
23280;SDS011;11809;56.390;-3.266;2023-06-24T11:52:44;7.10;;;2.20;;
23280;SDS011;11809;56.390;-3.266;2023-06-24T11:55:21;13.38;;;2.53;;
23280;SDS011;11809;56.390;-3.266;2023-06-24T11:58:00;6.43;;;1.80;;
23280;SDS011;11809;56.390;-3.266;2023-06-24T12:00:30;8.60;;;2.30;;
23280;SDS011;11809;56.390;-3.266;2023-06-24T12:03:00;3.20;;;2.15;;
23280;SDS011;11809;56.390;-3.266;2023-06-24T12:05:37;6.32;;;2.00;;
23280;SDS011;11809;56.390;-3.266;2023-06-24T12:08:12;8.55;;;2.00;;
23280;SDS011;11809;56.390;-3.266;2023-06-24T12:10:42;5.47;;;2.30;;
23280;SDS011;11809;56.390;-3.266;2023-06-24T12:13:10;11.48;;;2.28;;
23280;SDS011;11809;56.390;-3.266;2023-06-24T12:15:37;9.50;;;2.33;;
23280;SDS011;11809;56.390;-3.266;2023-06-24T12:18:04;8.60;;;2.05;;
23280;SDS011;11809;56.390;-3.266;2023-06-24T12:20:32;8.93;;;2.30;;
23280;SDS011;11809;56.390;-3.266;2023-06-24T12:23:03;14.38;;;2.53;;
23280;SDS011;11809;56.390;-3.266;2023-06-24T12:25:31;13.25;;;2.90;;
23280;SDS011;11809;56.390;-3.266;2023-06-24T12:27:58;17.92;;;4.25;;
23280;SDS011;11809;56.390;-3.266;2023-06-24T12:30:28;16.00;;;4.10;;
23280;SDS011;11809;56.390;-3.266;2023-06-24T12:32:56;14.30;;;4.60;;
23280;SDS011;11809;56.390;-3.266;2023-06-24T12:35:23;12.65;;;5.18;;
23280;SDS011;11809;56.390;-3.266;2023-06-24T12:37:52;16.92;;;7.15;;
23280;SDS011;11809;56.390;-3.266;2023-06-24T12:40:19;23.58;;;6.07;;
23280;SDS011;11809;56.390;-3.266;2023-06-24T12:42:46;14.15;;;8.75;;
23280;SDS011;11809;56.390;-3.266;2023-06-24T12:45:13;14.23;;;8.70;;
23280;SDS011;11809;56.390;-3.266;2023-06-24T12:47:40;18.15;;;12.45;;
23280;SDS011;11809;56.390;-3.266;2023-06-24T12:50:08;19.13;;;13.85;;
23280;SDS011;11809;56.390;-3.266;2023-06-24T12:52:36;23.55;;;15.60;;
23280;SDS011;11809;56.390;-3.266;2023-06-24T12:55:04;21.58;;;16.45;;
23280;SDS011;11809;56.390;-3.266;2023-06-24T12:57:34;23.00;;;13.13;;
23280;SDS011;11809;56.390;-3.266;2023-06-24T13:00:03;18.58;;;12.27;;
23280;SDS011;11809;56.390;-3.266;2023-06-24T13:02:35;18.08;;;12.23;;
23280;SDS011;11809;56.390;-3.266;2023-06-24T13:05:02;25.80;;;14.57;;
23280;SDS011;11809;56.390;-3.266;2023-06-24T13:07:30;16.17;;;10.82;;
23280;SDS011;11809;56.390;-3.266;2023-06-24T13:09:58;21.55;;;11.30;;
23280;SDS011;11809;56.390;-3.266;2023-06-24T13:12:26;22.25;;;11.48;;
23280;SDS011;11809;56.390;-3.266;2023-06-24T13:14:53;28.15;;;11.20;;
23280;SDS011;11809;56.390;-3.266;2023-06-24T13:17:20;15.82;;;10.57;;
23280;SDS011;11809;56.390;-3.266;2023-06-24T13:19:50;18.92;;;11.18;;
23280;SDS011;11809;56.390;-3.266;2023-06-24T13:22:18;24.02;;;11.68;;
23280;SDS011;11809;56.390;-3.266;2023-06-24T13:24:45;24.92;;;10.40;;
23280;SDS011;11809;56.390;-3.266;2023-06-24T13:27:13;37.95;;;11.05;;
23280;SDS011;11809;56.390;-3.266;2023-06-24T13:29:40;20.15;;;9.57;;
23280;SDS011;11809;56.390;-3.266;2023-06-24T13:32:07;22.92;;;10.18;;
23280;SDS011;11809;56.390;-3.266;2023-06-24T13:34:35;24.20;;;9.23;;
23280;SDS011;11809;56.390;-3.266;2023-06-24T13:37:02;39.35;;;9.82;;
23280;SDS011;11809;56.390;-3.266;2023-06-24T13:39:30;22.60;;;8.02;;
23280;SDS011;11809;56.390;-3.266;2023-06-24T13:41:57;22.30;;;9.02;;
23280;SDS011;11809;56.390;-3.266;2023-06-24T13:44:24;15.40;;;7.72;;
23280;SDS011;11809;56.390;-3.266;2023-06-24T13:46:51;17.27;;;7.55;;
23280;SDS011;11809;56.390;-3.266;2023-06-24T13:49:20;26.80;;;8.00;;
23280;SDS011;11809;56.390;-3.266;2023-06-24T13:51:47;27.15;;;6.80;;
23280;SDS011;11809;56.390;-3.266;2023-06-24T13:54:14;18.65;;;6.25;;
23280;SDS011;11809;56.390;-3.266;2023-06-24T13:56:41;13.23;;;3.90;;
23280;SDS011;11809;56.390;-3.266;2023-06-24T13:59:09;11.13;;;4.97;;
23280;SDS011;11809;56.390;-3.266;2023-06-24T14:01:37;3.90;;;2.40;;
23280;SDS011;11809;56.390;-3.266;2023-06-24T14:04:04;6.90;;;2.58;;
23280;SDS011;11809;56.390;-3.266;2023-06-24T14:06:32;14.30;;;3.95;;
23280;SDS011;11809;56.390;-3.266;2023-06-24T14:08:59;12.00;;;4.00;;
23280;SDS011;11809;56.390;-3.266;2023-06-24T14:11:26;7.80;;;3.28;;
23280;SDS011;11809;56.390;-3.266;2023-06-24T14:13:53;7.28;;;3.42;;
23280;SDS011;11809;56.390;-3.266;2023-06-24T14:16:21;5.25;;;3.10;;
23280;SDS011;11809;56.390;-3.266;2023-06-24T14:18:49;5.22;;;3.00;;
23280;SDS011;11809;56.390;-3.266;2023-06-24T14:21:16;26.65;;;3.72;;
23280;SDS011;11809;56.390;-3.266;2023-06-24T14:23:46;16.92;;;3.13;;
23280;SDS011;11809;56.390;-3.266;2023-06-24T14:26:14;15.48;;;3.30;;
23280;SDS011;11809;56.390;-3.266;2023-06-24T14:28:41;5.53;;;3.00;;
23280;SDS011;11809;56.390;-3.266;2023-06-24T14:31:08;7.90;;;2.80;;
23280;SDS011;11809;56.390;-3.266;2023-06-24T14:33:35;18.80;;;3.40;;
23280;SDS011;11809;56.390;-3.266;2023-06-24T14:36:03;5.57;;;2.55;;
23280;SDS011;11809;56.390;-3.266;2023-06-24T14:38:30;4.93;;;2.80;;
23280;SDS011;11809;56.390;-3.266;2023-06-24T14:40:57;7.85;;;2.95;;
23280;SDS011;11809;56.390;-3.266;2023-06-24T14:43:25;7.70;;;3.58;;
23280;SDS011;11809;56.390;-3.266;2023-06-24T14:45:52;9.45;;;3.40;;
23280;SDS011;11809;56.390;-3.266;2023-06-24T14:48:20;4.90;;;3.00;;
23280;SDS011;11809;56.390;-3.266;2023-06-24T14:50:47;11.05;;;3.80;;
23280;SDS011;11809;56.390;-3.266;2023-06-24T14:53:14;12.45;;;3.70;;
23280;SDS011;11809;56.390;-3.266;2023-06-24T14:55:41;5.82;;;3.15;;
23280;SDS011;11809;56.390;-3.266;2023-06-24T14:58:09;13.70;;;3.92;;
23280;SDS011;11809;56.390;-3.266;2023-06-24T15:00:36;6.03;;;3.28;;
23280;SDS011;11809;56.390;-3.266;2023-06-24T15:03:03;7.13;;;3.33;;
23280;SDS011;11809;56.390;-3.266;2023-06-24T15:05:31;13.10;;;4.30;;
23280;SDS011;11809;56.390;-3.266;2023-06-24T15:08:00;6.90;;;4.40;;